Terminal Aerodrome Forecast
Issued by NWS Louisville, KY

Home | Current Version | Previous Version | Text Only | Print | Product List | Glossary On
Versions: 1 2 3 4 5 6 7 8 9 10 11 12 13 14 15
714
FTUS43 KLMK 261127
TAFSDF
TAF
KSDF 261127Z 2612/2718 17008KT P6SM VCSH BKN045
     FM261600 20012KT P6SM BKN050
     FM262100 20012KT P6SM VCTS SCT050CB
     FM270200 17005KT P6SM SCT150
     FM271600 19010KT P6SM SCT050=

USA.gov is the U.S. government's official web portal to all federal, state and local government web resources and services.